sensor_id;sensor_type;location;lat;lon;timestamp;pressure;altitude;pressure_sealevel;temperature;humidity
5413;BME280;2729;50.056;8.678;2022-07-23T00:02:10;100176.25;;;23.29;100.00
5413;BME280;2729;50.056;8.678;2022-07-23T00:04:36;100168.88;;;23.10;100.00
5413;BME280;2729;50.056;8.678;2022-07-23T00:07:02;100164.25;;;23.01;100.00
5413;BME280;2729;50.056;8.678;2022-07-23T00:09:28;100152.28;;;23.06;100.00
5413;BME280;2729;50.056;8.678;2022-07-23T00:11:57;100150.34;;;23.08;100.00
5413;BME280;2729;50.056;8.678;2022-07-23T00:14:22;100151.44;;;23.06;100.00
5413;BME280;2729;50.056;8.678;2022-07-23T00:16:48;100152.50;;;22.81;100.00
5413;BME280;2729;50.056;8.678;2022-07-23T00:19:14;100152.69;;;22.67;100.00
5413;BME280;2729;50.056;8.678;2022-07-23T00:21:40;100151.03;;;22.77;100.00
5413;BME280;2729;50.056;8.678;2022-07-23T00:24:06;100155.63;;;22.75;100.00
5413;BME280;2729;50.056;8.678;2022-07-23T00:26:32;100152.59;;;22.68;100.00
5413;BME280;2729;50.056;8.678;2022-07-23T00:28:58;100161.22;;;22.83;100.00
5413;BME280;2729;50.056;8.678;2022-07-23T00:31:24;100171.81;;;22.72;100.00
5413;BME280;2729;50.056;8.678;2022-07-23T00:33:50;100174.59;;;22.70;100.00
5413;BME280;2729;50.056;8.678;2022-07-23T00:36:16;100180.09;;;22.80;100.00
5413;BME280;2729;50.056;8.678;2022-07-23T00:38:42;100176.59;;;22.80;100.00
5413;BME280;2729;50.056;8.678;2022-07-23T00:41:08;100179.66;;;22.62;100.00
5413;BME280;2729;50.056;8.678;2022-07-23T00:43:34;100176.00;;;22.52;100.00
5413;BME280;2729;50.056;8.678;2022-07-23T00:46:00;100170.69;;;22.52;100.00
5413;BME280;2729;50.056;8.678;2022-07-23T00:48:26;100158.59;;;22.59;100.00
5413;BME280;2729;50.056;8.678;2022-07-23T00:50:52;100152.81;;;22.65;100.00
5413;BME280;2729;50.056;8.678;2022-07-23T00:53:19;100151.09;;;22.53;100.00
5413;BME280;2729;50.056;8.678;2022-07-23T00:55:45;100146.72;;;22.41;100.00
5413;BME280;2729;50.056;8.678;2022-07-23T00:58:11;100153.78;;;22.18;100.00
5413;BME280;2729;50.056;8.678;2022-07-23T01:00:38;100159.66;;;22.10;100.00
5413;BME280;2729;50.056;8.678;2022-07-23T01:03:04;100161.00;;;22.16;100.00
5413;BME280;2729;50.056;8.678;2022-07-23T01:05:30;100160.13;;;22.04;100.00
5413;BME280;2729;50.056;8.678;2022-07-23T01:07:56;100170.56;;;22.19;100.00
5413;BME280;2729;50.056;8.678;2022-07-23T01:10:22;100163.91;;;22.13;100.00
5413;BME280;2729;50.056;8.678;2022-07-23T01:13:02;100170.22;;;21.99;100.00
5413;BME280;2729;50.056;8.678;2022-07-23T01:15:30;100191.69;;;21.96;100.00
5413;BME280;2729;50.056;8.678;2022-07-23T01:17:56;100189.41;;;22.16;100.00
5413;BME280;2729;50.056;8.678;2022-07-23T01:20:22;100187.59;;;22.16;100.00
5413;BME280;2729;50.056;8.678;2022-07-23T01:22:48;100200.16;;;22.14;100.00
5413;BME280;2729;50.056;8.678;2022-07-23T01:25:15;100204.00;;;22.10;100.00
5413;BME280;2729;50.056;8.678;2022-07-23T01:27:48;100207.78;;;22.19;100.00
5413;BME280;2729;50.056;8.678;2022-07-23T01:30:15;100199.47;;;22.23;100.00
5413;BME280;2729;50.056;8.678;2022-07-23T01:32:41;100198.63;;;22.23;100.00
5413;BME280;2729;50.056;8.678;2022-07-23T01:35:07;100188.63;;;22.26;100.00
5413;BME280;2729;50.056;8.678;2022-07-23T01:37:34;100196.47;;;22.28;100.00
5413;BME280;2729;50.056;8.678;2022-07-23T01:40:00;100191.22;;;22.15;100.00
5413;BME280;2729;50.056;8.678;2022-07-23T01:42:26;100177.44;;;22.10;100.00
5413;BME280;2729;50.056;8.678;2022-07-23T01:44:52;100167.94;;;21.82;100.00
5413;BME280;2729;50.056;8.678;2022-07-23T01:47:20;100171.22;;;21.62;100.00
5413;BME280;2729;50.056;8.678;2022-07-23T01:49:49;100170.97;;;21.65;100.00
5413;BME280;2729;50.056;8.678;2022-07-23T01:52:34;100162.31;;;21.50;100.00
5413;BME280;2729;50.056;8.678;2022-07-23T01:55:00;100161.97;;;21.55;100.00
5413;BME280;2729;50.056;8.678;2022-07-23T01:57:26;100147.66;;;21.44;100.00
5413;BME280;2729;50.056;8.678;2022-07-23T01:59:52;100142.50;;;21.30;100.00
5413;BME280;2729;50.056;8.678;2022-07-23T02:02:20;100161.59;;;21.35;100.00
5413;BME280;2729;50.056;8.678;2022-07-23T02:04:46;100176.47;;;21.38;100.00
5413;BME280;2729;50.056;8.678;2022-07-23T02:07:12;100188.28;;;21.34;100.00
5413;BME280;2729;50.056;8.678;2022-07-23T02:09:38;100198.88;;;21.34;100.00
5413;BME280;2729;50.056;8.678;2022-07-23T02:12:04;100200.16;;;21.28;100.00
5413;BME280;2729;50.056;8.678;2022-07-23T02:14:30;100204.53;;;21.29;100.00
5413;BME280;2729;50.056;8.678;2022-07-23T02:16:56;100206.13;;;21.32;100.00
5413;BME280;2729;50.056;8.678;2022-07-23T02:19:22;100209.19;;;21.38;100.00
5413;BME280;2729;50.056;8.678;2022-07-23T02:21:48;100216.63;;;21.33;100.00
5413;BME280;2729;50.056;8.678;2022-07-23T02:24:15;100227.88;;;21.37;100.00
5413;BME280;2729;50.056;8.678;2022-07-23T02:26:42;100219.25;;;21.21;100.00
5413;BME280;2729;50.056;8.678;2022-07-23T02:29:08;100219.69;;;21.14;100.00
5413;BME280;2729;50.056;8.678;2022-07-23T02:31:34;100214.38;;;20.89;100.00
5413;BME280;2729;50.056;8.678;2022-07-23T02:34:00;100212.03;;;20.84;100.00
5413;BME280;2729;50.056;8.678;2022-07-23T02:36:27;100206.09;;;20.94;100.00
5413;BME280;2729;50.056;8.678;2022-07-23T02:38:53;100198.66;;;20.99;100.00
5413;BME280;2729;50.056;8.678;2022-07-23T02:41:19;100190.59;;;21.00;100.00
5413;BME280;2729;50.056;8.678;2022-07-23T02:43:45;100189.97;;;20.97;100.00
5413;BME280;2729;50.056;8.678;2022-07-23T02:46:12;100197.19;;;21.07;100.00
5413;BME280;2729;50.056;8.678;2022-07-23T02:48:39;100213.31;;;20.92;100.00
5413;BME280;2729;50.056;8.678;2022-07-23T02:51:05;100200.16;;;21.03;100.00
5413;BME280;2729;50.056;8.678;2022-07-23T02:53:36;100194.00;;;21.02;100.00
5413;BME280;2729;50.056;8.678;2022-07-23T02:56:02;100200.47;;;20.98;100.00
5413;BME280;2729;50.056;8.678;2022-07-23T02:58:29;100200.38;;;21.00;100.00
5413;BME280;2729;50.056;8.678;2022-07-23T03:00:55;100192.19;;;21.15;100.00
5413;BME280;2729;50.056;8.678;2022-07-23T03:03:21;100207.16;;;21.16;100.00
5413;BME280;2729;50.056;8.678;2022-07-23T03:05:47;100239.28;;;20.74;100.00
5413;BME280;2729;50.056;8.678;2022-07-23T03:08:13;100254.28;;;20.34;100.00
5413;BME280;2729;50.056;8.678;2022-07-23T03:10:41;100258.69;;;20.20;100.00
5413;BME280;2729;50.056;8.678;2022-07-23T03:13:08;100253.69;;;19.89;100.00
5413;BME280;2729;50.056;8.678;2022-07-23T03:15:34;100255.13;;;19.66;100.00
5413;BME280;2729;50.056;8.678;2022-07-23T03:18:00;100255.59;;;19.73;100.00
5413;BME280;2729;50.056;8.678;2022-07-23T03:20:28;100251.06;;;19.61;100.00
5413;BME280;2729;50.056;8.678;2022-07-23T03:22:54;100260.13;;;19.71;100.00
5413;BME280;2729;50.056;8.678;2022-07-23T03:25:20;100259.50;;;19.53;100.00
5413;BME280;2729;50.056;8.678;2022-07-23T03:27:47;100267.97;;;19.44;100.00
5413;BME280;2729;50.056;8.678;2022-07-23T03:30:13;100275.63;;;19.48;100.00
5413;BME280;2729;50.056;8.678;2022-07-23T03:32:39;100272.50;;;19.42;100.00
5413;BME280;2729;50.056;8.678;2022-07-23T03:35:05;100271.94;;;19.22;100.00
5413;BME280;2729;50.056;8.678;2022-07-23T03:37:31;100276.09;;;19.41;100.00
5413;BME280;2729;50.056;8.678;2022-07-23T03:39:58;100286.59;;;19.28;100.00
5413;BME280;2729;50.056;8.678;2022-07-23T03:42:25;100293.59;;;19.29;100.00
5413;BME280;2729;50.056;8.678;2022-07-23T03:44:50;100298.41;;;19.37;100.00
5413;BME280;2729;50.056;8.678;2022-07-23T03:47:16;100302.09;;;19.34;100.00
5413;BME280;2729;50.056;8.678;2022-07-23T03:49:43;100293.84;;;19.24;100.00
5413;BME280;2729;50.056;8.678;2022-07-23T03:52:09;100298.69;;;19.32;100.00
5413;BME280;2729;50.056;8.678;2022-07-23T03:54:35;100295.34;;;19.14;100.00
5413;BME280;2729;50.056;8.678;2022-07-23T03:57:01;100298.84;;;19.15;100.00
5413;BME280;2729;50.056;8.678;2022-07-23T03:59:28;100310.59;;;19.25;100.00
5413;BME280;2729;50.056;8.678;2022-07-23T04:01:54;100311.63;;;19.22;100.00
5413;BME280;2729;50.056;8.678;2022-07-23T04:04:20;100313.81;;;19.30;100.00
5413;BME280;2729;50.056;8.678;2022-07-23T04:06:46;100292.63;;;19.16;100.00
5413;BME280;2729;50.056;8.678;2022-07-23T04:09:14;100287.91;;;19.21;100.00
5413;BME280;2729;50.056;8.678;2022-07-23T04:11:40;100276.94;;;19.27;100.00
5413;BME280;2729;50.056;8.678;2022-07-23T04:14:06;100289.22;;;19.28;100.00
5413;BME280;2729;50.056;8.678;2022-07-23T04:16:33;100309.75;;;19.24;100.00
5413;BME280;2729;50.056;8.678;2022-07-23T04:18:59;100302.06;;;19.20;100.00
5413;BME280;2729;50.056;8.678;2022-07-23T04:21:28;100300.84;;;19.25;100.00
5413;BME280;2729;50.056;8.678;2022-07-23T04:23:55;100294.34;;;19.31;100.00
5413;BME280;2729;50.056;8.678;2022-07-23T04:26:21;100299.72;;;19.30;100.00
5413;BME280;2729;50.056;8.678;2022-07-23T04:28:47;100305.97;;;19.28;100.00
5413;BME280;2729;50.056;8.678;2022-07-23T04:31:13;100307.00;;;19.26;100.00
5413;BME280;2729;50.056;8.678;2022-07-23T04:33:39;100311.06;;;19.17;100.00
5413;BME280;2729;50.056;8.678;2022-07-23T04:36:07;100309.25;;;19.18;100.00
5413;BME280;2729;50.056;8.678;2022-07-23T04:38:33;100319.09;;;19.30;100.00
5413;BME280;2729;50.056;8.678;2022-07-23T04:41:01;100315.59;;;19.15;100.00
5413;BME280;2729;50.056;8.678;2022-07-23T04:43:27;100313.31;;;19.23;100.00
5413;BME280;2729;50.056;8.678;2022-07-23T04:45:54;100322.56;;;19.16;100.00
5413;BME280;2729;50.056;8.678;2022-07-23T04:48:20;100331.94;;;19.22;100.00
5413;BME280;2729;50.056;8.678;2022-07-23T04:50:49;100350.22;;;19.41;100.00
5413;BME280;2729;50.056;8.678;2022-07-23T04:53:19;100354.75;;;19.39;100.00
5413;BME280;2729;50.056;8.678;2022-07-23T04:55:46;100355.47;;;19.56;100.00
5413;BME280;2729;50.056;8.678;2022-07-23T04:58:12;100350.75;;;19.62;100.00
5413;BME280;2729;50.056;8.678;2022-07-23T05:00:38;100340.34;;;19.58;100.00
5413;BME280;2729;50.056;8.678;2022-07-23T05:03:04;100332.13;;;19.63;100.00
5413;BME280;2729;50.056;8.678;2022-07-23T05:05:31;100330.78;;;19.56;100.00
5413;BME280;2729;50.056;8.678;2022-07-23T05:08:05;100331.16;;;19.64;100.00
5413;BME280;2729;50.056;8.678;2022-07-23T05:10:32;100341.00;;;19.62;100.00
5413;BME280;2729;50.056;8.678;2022-07-23T05:12:58;100350.47;;;19.66;100.00
5413;BME280;2729;50.056;8.678;2022-07-23T05:18:29;100351.69;;;19.75;100.00
5413;BME280;2729;50.056;8.678;2022-07-23T05:20:55;100345.16;;;19.80;100.00
5413;BME280;2729;50.056;8.678;2022-07-23T05:23:22;100347.25;;;19.89;100.00
5413;BME280;2729;50.056;8.678;2022-07-23T05:25:49;100330.97;;;19.81;100.00
5413;BME280;2729;50.056;8.678;2022-07-23T05:28:16;100338.94;;;19.81;100.00
5413;BME280;2729;50.056;8.678;2022-07-23T05:30:42;100334.19;;;19.86;100.00
5413;BME280;2729;50.056;8.678;2022-07-23T05:33:11;100336.44;;;20.07;100.00
5413;BME280;2729;50.056;8.678;2022-07-23T05:35:38;100340.69;;;20.09;100.00
5413;BME280;2729;50.056;8.678;2022-07-23T05:38:15;100358.97;;;20.14;100.00
5413;BME280;2729;50.056;8.678;2022-07-23T05:40:41;100366.81;;;20.15;100.00
5413;BME280;2729;50.056;8.678;2022-07-23T05:43:07;100373.16;;;20.13;100.00
5413;BME280;2729;50.056;8.678;2022-07-23T05:45:34;100361.50;;;20.15;100.00
5413;BME280;2729;50.056;8.678;2022-07-23T05:48:00;100348.56;;;20.11;100.00
5413;BME280;2729;50.056;8.678;2022-07-23T05:50:35;100366.03;;;20.28;100.00
5413;BME280;2729;50.056;8.678;2022-07-23T05:53:16;100359.13;;;20.25;100.00
5413;BME280;2729;50.056;8.678;2022-07-23T05:56:01;100362.91;;;20.35;100.00
5413;BME280;2729;50.056;8.678;2022-07-23T05:58:29;100361.75;;;20.53;100.00
5413;BME280;2729;50.056;8.678;2022-07-23T06:00:55;100368.09;;;20.51;100.00
5413;BME280;2729;50.056;8.678;2022-07-23T06:03:20;100356.28;;;20.28;100.00
5413;BME280;2729;50.056;8.678;2022-07-23T06:05:46;100357.03;;;20.44;100.00
5413;BME280;2729;50.056;8.678;2022-07-23T06:08:12;100359.28;;;20.36;100.00
5413;BME280;2729;50.056;8.678;2022-07-23T06:10:38;100366.19;;;20.53;100.00
5413;BME280;2729;50.056;8.678;2022-07-23T06:13:04;100360.16;;;20.37;100.00
5413;BME280;2729;50.056;8.678;2022-07-23T06:15:30;100360.84;;;20.40;100.00
5413;BME280;2729;50.056;8.678;2022-07-23T06:17:57;100359.66;;;20.59;100.00
5413;BME280;2729;50.056;8.678;2022-07-23T06:20:23;100370.28;;;20.85;100.00
5413;BME280;2729;50.056;8.678;2022-07-23T06:22:49;100367.94;;;20.81;100.00
5413;BME280;2729;50.056;8.678;2022-07-23T06:25:15;100366.69;;;20.86;100.00
5413;BME280;2729;50.056;8.678;2022-07-23T06:27:43;100366.03;;;20.83;100.00
5413;BME280;2729;50.056;8.678;2022-07-23T06:30:11;100365.19;;;20.82;100.00
5413;BME280;2729;50.056;8.678;2022-07-23T06:32:37;100365.91;;;21.11;100.00
5413;BME280;2729;50.056;8.678;2022-07-23T06:35:04;100368.22;;;21.03;100.00
5413;BME280;2729;50.056;8.678;2022-07-23T06:37:30;100356.97;;;21.12;100.00
5413;BME280;2729;50.056;8.678;2022-07-23T06:39:56;100373.53;;;21.16;100.00
5413;BME280;2729;50.056;8.678;2022-07-23T06:42:22;100366.28;;;21.32;100.00
5413;BME280;2729;50.056;8.678;2022-07-23T06:44:55;100364.38;;;21.34;100.00
5413;BME280;2729;50.056;8.678;2022-07-23T06:47:22;100359.69;;;21.38;100.00
5413;BME280;2729;50.056;8.678;2022-07-23T06:49:48;100355.88;;;21.55;100.00
5413;BME280;2729;50.056;8.678;2022-07-23T06:52:14;100367.47;;;21.66;100.00
5413;BME280;2729;50.056;8.678;2022-07-23T06:54:40;100360.34;;;21.54;100.00
5413;BME280;2729;50.056;8.678;2022-07-23T06:57:06;100359.50;;;21.54;100.00
5413;BME280;2729;50.056;8.678;2022-07-23T06:59:32;100363.84;;;21.80;100.00
5413;BME280;2729;50.056;8.678;2022-07-23T07:01:58;100366.09;;;21.73;100.00
5413;BME280;2729;50.056;8.678;2022-07-23T07:04:24;100361.19;;;22.05;100.00
5413;BME280;2729;50.056;8.678;2022-07-23T07:06:50;100363.84;;;22.05;100.00
5413;BME280;2729;50.056;8.678;2022-07-23T07:09:16;100365.00;;;22.14;100.00
5413;BME280;2729;50.056;8.678;2022-07-23T07:11:43;100372.56;;;22.07;100.00
5413;BME280;2729;50.056;8.678;2022-07-23T07:14:09;100376.16;;;22.19;100.00
5413;BME280;2729;50.056;8.678;2022-07-23T07:16:35;100378.28;;;22.27;100.00
5413;BME280;2729;50.056;8.678;2022-07-23T07:19:01;100378.41;;;22.49;100.00
5413;BME280;2729;50.056;8.678;2022-07-23T07:21:27;100378.47;;;22.60;100.00
5413;BME280;2729;50.056;8.678;2022-07-23T07:23:53;100381.69;;;22.53;100.00
5413;BME280;2729;50.056;8.678;2022-07-23T07:26:19;100385.00;;;22.56;100.00
5413;BME280;2729;50.056;8.678;2022-07-23T07:28:45;100388.28;;;22.60;100.00
5413;BME280;2729;50.056;8.678;2022-07-23T07:31:11;100386.34;;;22.62;100.00
5413;BME280;2729;50.056;8.678;2022-07-23T07:33:37;100393.09;;;22.78;100.00
5413;BME280;2729;50.056;8.678;2022-07-23T07:36:03;100387.50;;;22.70;100.00
5413;BME280;2729;50.056;8.678;2022-07-23T07:38:29;100387.69;;;22.80;100.00
5413;BME280;2729;50.056;8.678;2022-07-23T07:40:55;100386.50;;;22.84;100.00
5413;BME280;2729;50.056;8.678;2022-07-23T07:43:21;100390.25;;;22.82;100.00
5413;BME280;2729;50.056;8.678;2022-07-23T07:45:47;100407.56;;;22.87;100.00
5413;BME280;2729;50.056;8.678;2022-07-23T07:48:13;100406.50;;;22.90;100.00
5413;BME280;2729;50.056;8.678;2022-07-23T07:50:39;100411.66;;;23.04;100.00
5413;BME280;2729;50.056;8.678;2022-07-23T07:53:05;100421.00;;;22.86;100.00
5413;BME280;2729;50.056;8.678;2022-07-23T07:55:31;100417.25;;;22.88;100.00
5413;BME280;2729;50.056;8.678;2022-07-23T07:57:58;100416.47;;;22.99;100.00
5413;BME280;2729;50.056;8.678;2022-07-23T08:00:24;100419.56;;;23.17;100.00
5413;BME280;2729;50.056;8.678;2022-07-23T08:02:52;100422.88;;;23.31;98.80
5413;BME280;2729;50.056;8.678;2022-07-23T08:05:23;100425.88;;;23.51;100.00
5413;BME280;2729;50.056;8.678;2022-07-23T08:07:49;100422.31;;;23.63;97.12
5413;BME280;2729;50.056;8.678;2022-07-23T08:10:25;100415.69;;;23.80;91.79
5413;BME280;2729;50.056;8.678;2022-07-23T08:12:54;100418.44;;;23.67;92.50
5413;BME280;2729;50.056;8.678;2022-07-23T08:15:22;100422.72;;;23.92;91.58
5413;BME280;2729;50.056;8.678;2022-07-23T08:17:48;100425.28;;;24.16;93.15
5413;BME280;2729;50.056;8.678;2022-07-23T08:20:17;100435.47;;;24.22;89.34
5413;BME280;2729;50.056;8.678;2022-07-23T08:22:52;100435.22;;;24.25;93.77
5413;BME280;2729;50.056;8.678;2022-07-23T08:27:49;100435.09;;;23.93;90.06
5413;BME280;2729;50.056;8.678;2022-07-23T08:30:16;100436.06;;;23.92;92.78
5413;BME280;2729;50.056;8.678;2022-07-23T08:32:53;100437.63;;;23.94;92.82
5413;BME280;2729;50.056;8.678;2022-07-23T08:35:31;100433.50;;;23.79;93.06
5413;BME280;2729;50.056;8.678;2022-07-23T08:37:59;100433.50;;;23.90;95.48
5413;BME280;2729;50.056;8.678;2022-07-23T08:40:30;100442.97;;;23.94;90.36
5413;BME280;2729;50.056;8.678;2022-07-23T08:42:56;100442.97;;;24.17;90.71
5413;BME280;2729;50.056;8.678;2022-07-23T08:45:24;100443.97;;;24.49;86.67
5413;BME280;2729;50.056;8.678;2022-07-23T08:47:55;100444.94;;;24.48;86.43
5413;BME280;2729;50.056;8.678;2022-07-23T08:50:23;100443.97;;;24.38;85.47
5413;BME280;2729;50.056;8.678;2022-07-23T08:52:50;100443.47;;;24.55;88.66
5413;BME280;2729;50.056;8.678;2022-07-23T08:55:17;100440.09;;;24.53;84.60
5413;BME280;2729;50.056;8.678;2022-07-23T08:57:45;100439.00;;;24.45;85.56
5413;BME280;2729;50.056;8.678;2022-07-23T09:00:13;100439.25;;;24.53;85.85
5413;BME280;2729;50.056;8.678;2022-07-23T09:02:41;100439.59;;;24.48;83.17
5413;BME280;2729;50.056;8.678;2022-07-23T09:05:08;100439.28;;;24.85;87.80
5413;BME280;2729;50.056;8.678;2022-07-23T09:07:37;100433.56;;;25.00;82.05
5413;BME280;2729;50.056;8.678;2022-07-23T09:10:06;100434.91;;;24.95;80.86
5413;BME280;2729;50.056;8.678;2022-07-23T09:12:32;100432.13;;;24.85;84.11
5413;BME280;2729;50.056;8.678;2022-07-23T09:15:04;100432.94;;;25.08;78.46
5413;BME280;2729;50.056;8.678;2022-07-23T09:17:37;100435.28;;;24.90;78.32
5413;BME280;2729;50.056;8.678;2022-07-23T09:20:14;100423.56;;;24.71;80.92
5413;BME280;2729;50.056;8.678;2022-07-23T09:22:47;100423.50;;;24.93;78.08
5413;BME280;2729;50.056;8.678;2022-07-23T09:25:16;100433.44;;;24.91;81.02
5413;BME280;2729;50.056;8.678;2022-07-23T09:27:54;100435.06;;;25.25;75.91
5413;BME280;2729;50.056;8.678;2022-07-23T09:30:25;100430.34;;;25.18;75.50
5413;BME280;2729;50.056;8.678;2022-07-23T09:33:14;100431.63;;;25.35;79.54
5413;BME280;2729;50.056;8.678;2022-07-23T09:35:55;100434.44;;;25.54;75.44
5413;BME280;2729;50.056;8.678;2022-07-23T09:38:23;100429.97;;;25.75;74.98
5413;BME280;2729;50.056;8.678;2022-07-23T09:41:09;100442.28;;;25.67;74.43
5413;BME280;2729;50.056;8.678;2022-07-23T09:43:35;100439.88;;;25.84;72.41
5413;BME280;2729;50.056;8.678;2022-07-23T09:46:27;100435.50;;;26.04;71.54
5413;BME280;2729;50.056;8.678;2022-07-23T09:48:54;100433.84;;;26.13;71.83
5413;BME280;2729;50.056;8.678;2022-07-23T09:51:23;100443.56;;;26.14;70.92
5413;BME280;2729;50.056;8.678;2022-07-23T09:54:02;100439.03;;;26.05;70.57
5413;BME280;2729;50.056;8.678;2022-07-23T09:56:28;100443.75;;;26.22;70.79
5413;BME280;2729;50.056;8.678;2022-07-23T09:58:55;100440.47;;;26.39;70.03
5413;BME280;2729;50.056;8.678;2022-07-23T10:01:33;100428.84;;;26.59;70.94
5413;BME280;2729;50.056;8.678;2022-07-23T10:03:59;100431.56;;;26.79;67.68
5413;BME280;2729;50.056;8.678;2022-07-23T10:06:58;100444.16;;;26.48;66.52
5413;BME280;2729;50.056;8.678;2022-07-23T10:09:43;100441.34;;;26.19;69.47
5413;BME280;2729;50.056;8.678;2022-07-23T10:12:36;100435.16;;;26.49;68.24
5413;BME280;2729;50.056;8.678;2022-07-23T10:15:04;100432.97;;;26.83;66.08
5413;BME280;2729;50.056;8.678;2022-07-23T10:17:31;100431.41;;;26.71;67.37
5413;BME280;2729;50.056;8.678;2022-07-23T10:19:57;100423.63;;;26.27;67.47
5413;BME280;2729;50.056;8.678;2022-07-23T10:22:26;100431.03;;;25.93;68.84
5413;BME280;2729;50.056;8.678;2022-07-23T10:33:24;100429.94;;;26.47;70.08
5413;BME280;2729;50.056;8.678;2022-07-23T10:38:58;100423.16;;;27.03;71.93
5413;BME280;2729;50.056;8.678;2022-07-23T10:41:37;100419.63;;;27.12;66.67
5413;BME280;2729;50.056;8.678;2022-07-23T10:44:21;100419.19;;;27.36;65.42
5413;BME280;2729;50.056;8.678;2022-07-23T10:46:59;100422.31;;;27.21;62.63
5413;BME280;2729;50.056;8.678;2022-07-23T10:49:44;100427.34;;;26.86;65.40
5413;BME280;2729;50.056;8.678;2022-07-23T10:57:10;100429.41;;;26.63;68.10
5413;BME280;2729;50.056;8.678;2022-07-23T11:02:35;100410.75;;;27.21;66.14
5413;BME280;2729;50.056;8.678;2022-07-23T11:05:04;100415.53;;;27.08;63.68
5413;BME280;2729;50.056;8.678;2022-07-23T11:07:30;100418.19;;;27.46;62.81
5413;BME280;2729;50.056;8.678;2022-07-23T11:09:57;100407.31;;;27.48;65.11
5413;BME280;2729;50.056;8.678;2022-07-23T11:17:29;100407.75;;;27.53;61.54
5413;BME280;2729;50.056;8.678;2022-07-23T11:25:11;100401.09;;;27.76;65.22
5413;BME280;2729;50.056;8.678;2022-07-23T11:27:41;100400.09;;;27.77;60.38
5413;BME280;2729;50.056;8.678;2022-07-23T11:30:09;100399.91;;;27.89;59.64
5413;BME280;2729;50.056;8.678;2022-07-23T11:32:40;100398.59;;;28.02;60.80
5413;BME280;2729;50.056;8.678;2022-07-23T11:35:39;100397.69;;;27.74;61.86
5413;BME280;2729;50.056;8.678;2022-07-23T11:38:21;100399.84;;;27.61;59.69
5413;BME280;2729;50.056;8.678;2022-07-23T11:40:53;100396.72;;;27.56;59.29
5413;BME280;2729;50.056;8.678;2022-07-23T11:43:20;100392.34;;;27.74;59.10
5413;BME280;2729;50.056;8.678;2022-07-23T11:45:50;100390.59;;;28.30;62.46
5413;BME280;2729;50.056;8.678;2022-07-23T11:48:25;100391.63;;;28.46;57.07
5413;BME280;2729;50.056;8.678;2022-07-23T11:50:53;100394.69;;;28.79;53.42
5413;BME280;2729;50.056;8.678;2022-07-23T11:53:23;100394.84;;;28.77;53.16
5413;BME280;2729;50.056;8.678;2022-07-23T11:55:50;100390.94;;;28.72;55.35
5413;BME280;2729;50.056;8.678;2022-07-23T11:58:16;100386.22;;;28.19;54.69
5413;BME280;2729;50.056;8.678;2022-07-23T12:00:42;100394.72;;;27.77;56.04
5413;BME280;2729;50.056;8.678;2022-07-23T12:03:08;100386.44;;;28.08;56.14
5413;BME280;2729;50.056;8.678;2022-07-23T12:05:36;100382.00;;;27.79;54.97
5413;BME280;2729;50.056;8.678;2022-07-23T12:08:04;100388.91;;;27.92;55.47
5413;BME280;2729;50.056;8.678;2022-07-23T12:10:44;100382.38;;;27.94;56.50
5413;BME280;2729;50.056;8.678;2022-07-23T12:13:12;100386.09;;;27.83;55.52
5413;BME280;2729;50.056;8.678;2022-07-23T12:15:42;100383.00;;;27.78;54.85
5413;BME280;2729;50.056;8.678;2022-07-23T12:18:11;100378.66;;;27.58;58.97
5413;BME280;2729;50.056;8.678;2022-07-23T12:20:40;100379.66;;;27.57;61.06
5413;BME280;2729;50.056;8.678;2022-07-23T12:23:09;100384.44;;;27.73;56.57
5413;BME280;2729;50.056;8.678;2022-07-23T12:25:37;100381.06;;;28.08;56.49
5413;BME280;2729;50.056;8.678;2022-07-23T12:30:44;100377.94;;;28.12;54.68
5413;BME280;2729;50.056;8.678;2022-07-23T12:33:15;100381.69;;;28.29;56.49
5413;BME280;2729;50.056;8.678;2022-07-23T12:35:47;100381.44;;;28.23;57.44
5413;BME280;2729;50.056;8.678;2022-07-23T12:38:16;100380.00;;;28.83;53.37
5413;BME280;2729;50.056;8.678;2022-07-23T12:40:52;100378.56;;;29.32;54.17
5413;BME280;2729;50.056;8.678;2022-07-23T12:43:35;100371.44;;;29.67;52.10
5413;BME280;2729;50.056;8.678;2022-07-23T12:46:09;100373.75;;;29.88;50.87
5413;BME280;2729;50.056;8.678;2022-07-23T12:48:50;100382.75;;;29.70;46.23
5413;BME280;2729;50.056;8.678;2022-07-23T12:51:39;100380.06;;;29.70;48.74
5413;BME280;2729;50.056;8.678;2022-07-23T12:54:09;100388.13;;;29.70;47.87
5413;BME280;2729;50.056;8.678;2022-07-23T12:56:39;100368.34;;;29.54;46.54
5413;BME280;2729;50.056;8.678;2022-07-23T12:59:10;100376.03;;;29.74;47.38
5413;BME280;2729;50.056;8.678;2022-07-23T13:01:43;100372.88;;;29.79;48.50
5413;BME280;2729;50.056;8.678;2022-07-23T13:04:17;100376.50;;;29.96;46.25
5413;BME280;2729;50.056;8.678;2022-07-23T13:06:47;100372.59;;;30.24;44.35
5413;BME280;2729;50.056;8.678;2022-07-23T13:09:15;100380.91;;;30.39;45.11
5413;BME280;2729;50.056;8.678;2022-07-23T13:11:43;100393.31;;;29.98;45.03
5413;BME280;2729;50.056;8.678;2022-07-23T13:14:09;100377.72;;;29.50;45.03
5413;BME280;2729;50.056;8.678;2022-07-23T13:16:35;100380.91;;;29.09;45.28
5413;BME280;2729;50.056;8.678;2022-07-23T13:19:01;100378.69;;;29.05;43.68
5413;BME280;2729;50.056;8.678;2022-07-23T13:21:28;100376.47;;;29.00;43.50
5413;BME280;2729;50.056;8.678;2022-07-23T13:23:55;100375.53;;;29.09;42.37
5413;BME280;2729;50.056;8.678;2022-07-23T13:26:21;100376.50;;;29.26;43.62
5413;BME280;2729;50.056;8.678;2022-07-23T13:28:47;100377.81;;;29.22;45.45
5413;BME280;2729;50.056;8.678;2022-07-23T13:31:13;100374.25;;;29.39;42.74
5413;BME280;2729;50.056;8.678;2022-07-23T13:33:40;100367.06;;;29.66;43.54
5413;BME280;2729;50.056;8.678;2022-07-23T13:36:06;100373.81;;;29.70;43.93
5413;BME280;2729;50.056;8.678;2022-07-23T13:38:32;100366.59;;;29.44;42.33
5413;BME280;2729;50.056;8.678;2022-07-23T13:40:58;100377.31;;;29.62;43.91
5413;BME280;2729;50.056;8.678;2022-07-23T13:43:25;100374.31;;;29.65;44.94
5413;BME280;2729;50.056;8.678;2022-07-23T13:45:52;100368.97;;;29.48;43.09
5413;BME280;2729;50.056;8.678;2022-07-23T13:48:19;100362.00;;;29.19;44.32
5413;BME280;2729;50.056;8.678;2022-07-23T13:50:46;100369.34;;;29.53;44.55